Time;durP1;ratioP1;P1;durP2;ratioP2;P2;SDS_P1;SDS_P2;PMS_P1;PMS_P2;Temp;Humidity;BMP_temperature;BMP_pressure;BME280_temperature;BME280_humidity;BME280_pressure;Samples;Min_cycle;Max_cycle;Signal;HPM_P1;HPM_P2
2022/01/09 00:02:09;;;;;;;3.85;1.05;;;;;;;2.80;100.00;98868.69;6353386;28;20051;-84
2022/01/09 00:05:11;;;;;;;0.70;0.70;;;;;;;2.86;100.00;98871.00;6353142;28;20044;-84
2022/01/09 00:08:13;;;;;;;1.10;0.75;;;;;;;2.90;100.00;98864.69;6352740;28;20055;-84
2022/01/09 00:11:15;;;;;;;0.52;0.52;;;;;;;2.87;100.00;98861.44;6349194;28;20067;-83
2022/01/09 00:14:18;;;;;;;0.65;0.60;;;;;;;2.91;100.00;98852.59;6353071;28;20115;-82
2022/01/09 00:17:20;;;;;;;0.88;0.70;;;;;;;2.88;100.00;98850.97;6340328;28;20048;-83
2022/01/09 00:20:21;;;;;;;1.90;1.23;;;;;;;2.92;100.00;98852.50;6344528;28;20050;-84
2022/01/09 00:23:23;;;;;;;0.70;0.70;;;;;;;2.95;100.00;98841.09;6353521;28;20059;-83
2022/01/09 00:26:24;;;;;;;0.47;0.47;;;;;;;2.96;100.00;98840.22;6350415;28;20050;-84
2022/01/09 00:29:27;;;;;;;1.55;0.80;;;;;;;3.03;100.00;98833.75;6327477;28;20410;-85
2022/01/09 00:32:28;;;;;;;0.88;0.63;;;;;;;3.04;100.00;98832.84;6335704;28;20058;-83
2022/01/09 00:35:29;;;;;;;0.95;0.88;;;;;;;3.00;100.00;98831.34;6331648;28;20047;-83
2022/01/09 00:38:31;;;;;;;0.45;0.45;;;;;;;3.08;100.00;98815.34;6326665;28;20051;-83
2022/01/09 00:41:32;;;;;;;0.90;0.90;;;;;;;2.99;100.00;98812.31;6326889;28;20051;-83
2022/01/09 00:44:35;;;;;;;0.40;0.40;;;;;;;2.92;100.00;98795.44;6327110;28;20134;-83
2022/01/09 00:47:36;;;;;;;0.70;0.55;;;;;;;2.88;100.00;98801.69;6327170;28;20150;-83
2022/01/09 00:50:40;;;;;;;1.02;0.75;;;;;;;2.84;100.00;98804.53;6326894;28;20055;-84
2022/01/09 00:53:41;;;;;;;0.80;0.50;;;;;;;2.86;100.00;98802.69;6325956;28;20051;-83
2022/01/09 00:56:42;;;;;;;1.02;0.73;;;;;;;2.82;100.00;98791.66;6327051;28;20055;-84
2022/01/09 00:59:45;;;;;;;9.27;0.90;;;;;;;2.82;100.00;98799.44;6336888;28;20044;-84
2022/01/09 01:02:46;;;;;;;0.85;0.75;;;;;;;2.78;100.00;98787.53;6352172;27;20054;-84
2022/01/09 01:05:48;;;;;;;0.90;0.52;;;;;;;2.78;100.00;98790.16;6351893;28;20059;-83
2022/01/09 01:08:49;;;;;;;0.70;0.70;;;;;;;2.84;100.00;98794.16;6351644;27;20056;-81
2022/01/09 01:11:51;;;;;;;1.50;0.60;;;;;;;2.87;100.00;98781.03;6351576;28;20047;-85
2022/01/09 01:14:53;;;;;;;0.50;0.47;;;;;;;2.84;100.00;98781.19;6351909;28;20044;-85
2022/01/09 01:17:55;;;;;;;0.82;0.63;;;;;;;2.88;100.00;98777.53;6352143;28;20062;-85
2022/01/09 01:20:56;;;;;;;0.47;0.47;;;;;;;2.93;100.00;98772.91;6351114;27;20043;-83
2022/01/09 01:23:57;;;;;;;0.70;0.70;;;;;;;2.96;100.00;98765.81;6351271;28;20047;-83
2022/01/09 01:26:59;;;;;;;1.15;0.77;;;;;;;2.92;100.00;98766.06;6351560;28;20047;-84
2022/01/09 01:30:02;;;;;;;0.30;0.30;;;;;;;2.98;100.00;98763.13;6350661;28;20043;-83
2022/01/09 01:33:04;;;;;;;0.50;0.50;;;;;;;3.00;100.00;98766.50;6355617;28;20050;-84
2022/01/09 01:36:05;;;;;;;0.77;0.60;;;;;;;2.97;100.00;98764.88;6377844;28;20052;-82
2022/01/09 01:39:07;;;;;;;0.77;0.60;;;;;;;2.98;100.00;98763.13;6378980;28;20062;-82
2022/01/09 01:42:08;;;;;;;0.70;0.68;;;;;;;3.07;100.00;98752.25;6377953;28;20051;-83
2022/01/09 01:45:12;;;;;;;1.20;0.80;;;;;;;3.03;100.00;98756.75;6378596;28;20031;-82
2022/01/09 01:48:13;;;;;;;0.35;0.35;;;;;;;3.08;100.00;98748.72;6366955;28;20044;-83
2022/01/09 01:51:15;;;;;;;0.57;0.57;;;;;;;3.04;100.00;98748.06;6357064;28;20054;-84
2022/01/09 01:54:16;;;;;;;0.52;0.50;;;;;;;2.97;100.00;98743.28;6357354;28;20044;-84
2022/01/09 01:57:18;;;;;;;1.55;0.30;;;;;;;3.04;100.00;98742.03;6357379;28;20054;-83
2022/01/09 02:00:21;;;;;;;0.60;0.60;;;;;;;3.00;100.00;98738.78;6355505;28;20418;-84
2022/01/09 02:03:22;;;;;;;0.55;0.55;;;;;;;2.99;100.00;98738.84;6356154;28;20051;-84
2022/01/09 02:06:25;;;;;;;1.42;0.68;;;;;;;2.90;100.00;98731.56;6355405;28;20055;-83
2022/01/09 02:09:26;;;;;;;3.25;0.55;;;;;;;2.83;100.00;98730.25;6352013;28;20043;-84
2022/01/09 02:12:29;;;;;;;0.73;0.57;;;;;;;2.86;100.00;98730.06;6354726;28;20054;-84
2022/01/09 02:15:34;;;;;;;0.50;0.50;;;;;;;2.78;100.00;98731.31;6356591;28;20043;-83
2022/01/09 02:18:35;;;;;;;0.60;0.52;;;;;;;2.70;100.00;98727.47;6355176;28;20055;-84
2022/01/09 02:21:40;;;;;;;0.60;0.50;;;;;;;2.65;100.00;98730.31;6353279;28;20051;-84
2022/01/09 02:24:43;;;;;;;0.38;0.38;;;;;;;2.63;100.00;98724.34;6352643;28;20043;-81
2022/01/09 02:27:45;;;;;;;0.68;0.68;;;;;;;2.59;100.00;98722.00;6350809;28;20524;-84
2022/01/09 02:30:49;;;;;;;0.70;0.70;;;;;;;2.62;100.00;98716.66;6351809;28;20052;-84
2022/01/09 02:33:50;;;;;;;0.60;0.60;;;;;;;2.57;100.00;98719.50;6346204;28;20574;-83
2022/01/09 02:36:53;;;;;;;0.60;0.55;;;;;;;2.56;100.00;98717.00;6353519;28;20046;-83
2022/01/09 02:39:54;;;;;;;0.40;0.40;;;;;;;2.54;100.00;98714.47;6352981;28;20047;-83
2022/01/09 02:42:56;;;;;;;0.47;0.47;;;;;;;2.54;100.00;98717.06;6352866;28;20048;-84
2022/01/09 02:46:06;;;;;;;0.50;0.50;;;;;;;2.49;100.00;98708.69;6353568;28;20041;-83
2022/01/09 02:49:08;;;;;;;1.20;0.80;;;;;;;2.51;100.00;98718.06;6340292;28;20073;-84
2022/01/09 02:52:23;;;;;;;1.23;0.82;;;;;;;2.49;100.00;98725.06;6338676;28;20129;-84
2022/01/09 02:55:26;;;;;;;2.55;0.90;;;;;;;2.48;100.00;98709.63;6350383;28;20066;-84
2022/01/09 02:58:27;;;;;;;0.60;0.60;;;;;;;2.54;100.00;98710.16;6355666;28;20054;-84
2022/01/09 03:01:29;;;;;;;1.25;0.60;;;;;;;2.46;100.00;98717.50;6342306;28;20055;-84
2022/01/09 03:04:30;;;;;;;2.05;0.65;;;;;;;2.50;100.00;98718.16;6357518;28;20040;-84
2022/01/09 03:07:33;;;;;;;0.63;0.55;;;;;;;2.49;100.00;98714.72;6359103;28;20125;-83
2022/01/09 03:10:34;;;;;;;0.70;0.60;;;;;;;2.46;100.00;98711.47;6359659;28;20074;-83
2022/01/09 03:13:35;;;;;;;0.63;0.63;;;;;;;2.44;100.00;98716.72;6354033;28;20051;-82
2022/01/09 03:16:38;;;;;;;0.63;0.63;;;;;;;2.44;100.00;98723.66;6360528;28;20050;-82
2022/01/09 03:19:39;;;;;;;0.50;0.50;;;;;;;2.49;100.00;98716.47;6360063;28;20495;-82
2022/01/09 03:22:42;;;;;;;0.52;0.52;;;;;;;2.41;100.00;98710.88;6354899;28;20078;-82
2022/01/09 03:25:44;;;;;;;0.70;0.60;;;;;;;2.41;100.00;98716.91;6359255;28;20051;-82
2022/01/09 03:28:45;;;;;;;1.00;0.57;;;;;;;2.46;100.00;98712.31;6360273;27;20043;-82
2022/01/09 03:31:46;;;;;;;0.30;0.30;;;;;;;2.41;100.00;98718.66;6352689;28;20062;-82
2022/01/09 03:34:48;;;;;;;1.17;0.50;;;;;;;2.37;100.00;98709.38;6351941;27;20039;-80
2022/01/09 03:37:51;;;;;;;0.55;0.43;;;;;;;2.41;100.00;98714.31;6346115;28;20517;-82
2022/01/09 03:40:52;;;;;;;0.95;0.52;;;;;;;2.39;100.00;98720.47;6351293;28;20387;-81
2022/01/09 03:43:54;;;;;;;0.75;0.60;;;;;;;2.41;100.00;98721.25;6351213;28;20047;-81
2022/01/09 03:46:56;;;;;;;0.73;0.60;;;;;;;2.37;100.00;98722.31;6351632;28;20044;-82
2022/01/09 03:49:57;;;;;;;1.05;0.60;;;;;;;2.33;100.00;98719.03;6351206;28;20044;-81
2022/01/09 03:53:00;;;;;;;1.58;0.88;;;;;;;2.31;100.00;98710.50;6351589;28;20055;-81
2022/01/09 03:56:01;;;;;;;2.63;0.95;;;;;;;2.34;100.00;98712.09;6353562;28;20039;-82
2022/01/09 03:59:03;;;;;;;1.25;0.70;;;;;;;2.29;100.00;98709.75;6352401;28;20161;-82
2022/01/09 04:02:05;;;;;;;0.98;0.75;;;;;;;2.31;100.00;98709.66;6332512;28;20052;-82
2022/01/09 04:05:07;;;;;;;1.17;0.63;;;;;;;2.30;100.00;98719.19;6332056;28;20051;-81
2022/01/09 04:08:10;;;;;;;0.40;0.40;;;;;;;2.33;100.00;98724.22;6332662;28;20048;-81
2022/01/09 04:11:17;;;;;;;0.57;0.50;;;;;;;2.37;100.00;98725.75;6344404;28;20044;-82
2022/01/09 04:14:18;;;;;;;0.93;0.52;;;;;;;2.30;100.00;98729.56;6352211;28;20044;-82
2022/01/09 04:17:27;;;;;;;0.93;0.60;;;;;;;2.29;100.00;98727.91;6352010;28;20040;-81
2022/01/09 04:20:31;;;;;;;0.73;0.40;;;;;;;2.28;100.00;98727.06;6353327;28;20054;-81
2022/01/09 04:23:33;;;;;;;0.50;0.45;;;;;;;2.28;100.00;98727.06;6352190;27;20052;-81
2022/01/09 04:26:35;;;;;;;0.85;0.50;;;;;;;2.29;100.00;98731.31;6350559;28;20048;-81
2022/01/09 04:29:36;;;;;;;0.77;0.50;;;;;;;2.31;100.00;98735.59;6351142;28;20050;-81
2022/01/09 04:32:38;;;;;;;0.77;0.70;;;;;;;2.29;100.00;98736.50;6352783;28;20048;-81
2022/01/09 04:35:40;;;;;;;0.60;0.60;;;;;;;2.31;100.00;98741.59;6353121;28;20402;-81
2022/01/09 04:38:42;;;;;;;1.40;0.90;;;;;;;2.34;100.00;98732.84;6346690;28;20052;-81
2022/01/09 04:41:44;;;;;;;1.52;0.80;;;;;;;2.29;100.00;98738.25;6353672;28;20054;-81
2022/01/09 04:44:45;;;;;;;0.88;0.80;;;;;;;2.26;100.00;98736.66;6353121;28;20054;-80
2022/01/09 04:47:50;;;;;;;1.73;0.77;;;;;;;2.24;100.00;98738.50;6353278;28;20044;-81
2022/01/09 04:50:53;;;;;;;1.55;1.15;;;;;;;2.27;100.00;98746.13;6351047;28;20105;-81
2022/01/09 04:53:56;;;;;;;1.23;0.82;;;;;;;2.28;100.00;98746.97;6355383;28;20087;-81
2022/01/09 04:56:57;;;;;;;0.95;0.50;;;;;;;2.28;100.00;98741.78;6357670;28;20050;-82
2022/01/09 04:59:59;;;;;;;1.80;0.70;;;;;;;2.28;100.00;98744.38;6361244;28;20084;-82
2022/01/09 05:03:00;;;;;;;0.73;0.60;;;;;;;2.30;100.00;98750.28;6361991;28;20035;-81
2022/01/09 05:06:01;;;;;;;1.23;0.90;;;;;;;2.31;100.00;98751.97;6362397;28;20512;-81
2022/01/09 05:09:04;;;;;;;2.22;1.10;;;;;;;2.30;100.00;98760.66;6366308;28;20050;-81
2022/01/09 05:12:06;;;;;;;0.38;0.38;;;;;;;2.29;100.00;98759.81;6346023;28;20048;-81
2022/01/09 05:15:10;;;;;;;0.82;0.73;;;;;;;2.35;100.00;98763.00;6351372;28;20067;-81
2022/01/09 05:18:14;;;;;;;0.95;0.82;;;;;;;2.29;100.00;98761.59;6353341;28;20040;-81
2022/01/09 05:21:15;;;;;;;2.00;0.57;;;;;;;2.29;100.00;98762.41;6352068;28;20392;-81
2022/01/09 05:24:18;;;;;;;1.13;0.77;;;;;;;2.30;100.00;98773.63;6354954;28;20044;-82
2022/01/09 05:27:19;;;;;;;0.60;0.60;;;;;;;2.27;100.00;98772.03;6357673;28;20047;-81
2022/01/09 05:30:21;;;;;;;0.88;0.63;;;;;;;2.28;100.00;98781.47;6347785;28;20048;-82
2022/01/09 05:33:22;;;;;;;0.88;0.73;;;;;;;2.30;100.00;98784.00;6347775;28;20048;-81
2022/01/09 05:36:23;;;;;;;0.77;0.45;;;;;;;2.28;100.00;98784.06;6346745;28;20044;-81
2022/01/09 05:39:26;;;;;;;1.35;0.40;;;;;;;2.34;100.00;98792.44;6344902;28;20096;-81
2022/01/09 05:42:27;;;;;;;1.55;0.60;;;;;;;2.29;100.00;98803.88;6366896;28;20052;-81
2022/01/09 05:45:29;;;;;;;0.88;0.70;;;;;;;2.32;100.00;98804.63;6361271;28;20040;-81
2022/01/09 05:48:30;;;;;;;0.75;0.47;;;;;;;2.27;100.00;98802.28;6367095;28;20056;-81
2022/01/09 05:51:31;;;;;;;1.75;0.35;;;;;;;2.26;100.00;98813.56;6369465;28;20048;-82
2022/01/09 05:54:34;;;;;;;0.47;0.47;;;;;;;2.23;100.00;98809.38;6362278;28;20047;-82
2022/01/09 05:57:35;;;;;;;0.40;0.30;;;;;;;2.25;100.00;98819.66;6354767;28;20040;-83
2022/01/09 06:00:37;;;;;;;0.75;0.57;;;;;;;2.24;100.00;98815.41;6353661;28;20066;-83
2022/01/09 06:03:38;;;;;;;0.40;0.40;;;;;;;2.25;100.00;98823.09;6352803;28;20054;-83
2022/01/09 06:06:40;;;;;;;0.30;0.30;;;;;;;2.23;100.00;98830.13;6338971;27;20070;-83
2022/01/09 06:09:42;;;;;;;0.82;0.68;;;;;;;2.21;100.00;98826.75;6328913;28;20059;-83
2022/01/09 06:12:44;;;;;;;0.80;0.65;;;;;;;2.20;100.00;98832.03;6352016;28;20046;-82
2022/01/09 06:15:45;;;;;;;0.52;0.50;;;;;;;2.23;100.00;98835.31;6352439;28;20043;-83
2022/01/09 06:18:46;;;;;;;1.13;0.65;;;;;;;2.19;100.00;98843.31;6340472;28;20047;-83
2022/01/09 06:21:48;;;;;;;0.43;0.43;;;;;;;2.15;100.00;98842.63;6351111;28;20043;-81
2022/01/09 06:24:51;;;;;;;0.50;0.50;;;;;;;2.10;100.00;98838.59;6335358;28;20052;-81
2022/01/09 06:27:52;;;;;;;1.13;0.85;;;;;;;2.07;100.00;98857.69;6340462;28;20727;-81
2022/01/09 06:30:54;;;;;;;0.98;0.68;;;;;;;2.13;100.00;98853.94;6344933;28;20410;-81
2022/01/09 06:33:56;;;;;;;1.48;0.70;;;;;;;2.05;100.00;98859.53;6341789;28;20059;-81
2022/01/09 06:36:57;;;;;;;0.55;0.55;;;;;;;2.01;100.00;98869.19;6331425;28;20051;-82
2022/01/09 06:40:00;;;;;;;0.80;0.55;;;;;;;1.97;100.00;98877.19;6328687;28;20051;-82
2022/01/09 06:43:01;;;;;;;1.13;0.70;;;;;;;1.92;100.00;98877.41;6328687;28;20555;-81
2022/01/09 06:46:03;;;;;;;0.55;0.55;;;;;;;1.89;100.00;98887.06;6328422;28;20048;-81
2022/01/09 06:49:04;;;;;;;0.63;0.60;;;;;;;1.88;100.00;98891.41;6328196;28;20047;-81
2022/01/09 06:52:06;;;;;;;0.57;0.52;;;;;;;1.78;100.00;98901.38;6328139;28;20044;-82
2022/01/09 06:55:10;;;;;;;0.55;0.52;;;;;;;1.75;100.00;98911.88;6329401;28;20479;-82
2022/01/09 06:58:14;;;;;;;0.75;0.75;;;;;;;1.69;100.00;98911.34;6351701;28;20071;-82
2022/01/09 07:01:15;;;;;;;0.50;0.50;;;;;;;1.59;100.00;98920.41;6354223;28;20494;-81
2022/01/09 07:04:16;;;;;;;0.70;0.70;;;;;;;1.62;100.00;98931.47;6355730;28;20407;-82
2022/01/09 07:07:18;;;;;;;0.90;0.88;;;;;;;1.56;100.00;98934.34;6355155;28;20044;-82
2022/01/09 07:10:20;;;;;;;2.78;0.82;;;;;;;1.54;100.00;98938.75;6354074;28;20405;-83
2022/01/09 07:13:22;;;;;;;0.60;0.55;;;;;;;1.55;100.00;98945.63;6356308;28;20502;-82
2022/01/09 07:16:23;;;;;;;1.10;0.85;;;;;;;1.57;100.00;98946.38;6356694;27;20044;-84
2022/01/09 07:19:25;;;;;;;0.73;0.73;;;;;;;1.59;100.00;98956.66;6356583;28;20047;-83
2022/01/09 07:22:27;;;;;;;0.85;0.82;;;;;;;1.52;100.00;98966.47;6356001;27;20514;-82
2022/01/09 07:25:30;;;;;;;1.20;1.10;;;;;;;1.47;100.00;98960.66;6355669;28;20055;-82
2022/01/09 07:28:31;;;;;;;0.68;0.68;;;;;;;1.48;100.00;98967.50;6353869;28;20047;-82
2022/01/09 07:31:33;;;;;;;0.70;0.70;;;;;;;1.48;100.00;98968.34;6352853;28;20406;-83
2022/01/09 07:34:34;;;;;;;0.93;0.88;;;;;;;1.42;100.00;98972.97;6353162;28;20055;-80
2022/01/09 07:37:36;;;;;;;0.55;0.55;;;;;;;1.48;100.00;98975.28;6353246;27;20051;-82
2022/01/09 07:40:38;;;;;;;0.85;0.82;;;;;;;1.45;100.00;98984.03;6352558;28;20047;-80
2022/01/09 07:43:40;;;;;;;0.63;0.60;;;;;;;1.51;100.00;98980.31;6353214;28;20414;-83
2022/01/09 07:46:41;;;;;;;0.55;0.55;;;;;;;1.47;100.00;98989.97;6350881;28;20051;-82
2022/01/09 07:49:43;;;;;;;1.50;1.05;;;;;;;1.50;100.00;98992.44;6351945;28;20490;-81
2022/01/09 07:52:44;;;;;;;1.05;0.85;;;;;;;1.51;100.00;99003.63;6353247;28;20047;-83
2022/01/09 07:55:47;;;;;;;0.90;0.68;;;;;;;1.51;100.00;98999.28;6345260;27;20048;-82
2022/01/09 07:58:48;;;;;;;0.77;0.77;;;;;;;1.51;100.00;99007.03;6327321;28;20056;-82
2022/01/09 08:01:50;;;;;;;1.10;0.80;;;;;;;1.56;100.00;99009.44;6327194;28;20047;-81
2022/01/09 08:04:51;;;;;;;1.48;1.00;;;;;;;1.58;100.00;99015.38;6328910;28;20052;-81
2022/01/09 08:07:52;;;;;;;1.25;1.15;;;;;;;1.58;100.00;99020.53;6327809;28;20506;-81
2022/01/09 08:10:55;;;;;;;1.42;0.85;;;;;;;1.54;100.00;99024.16;6338914;28;20054;-81
2022/01/09 08:13:56;;;;;;;1.08;0.98;;;;;;;1.57;100.00;99030.97;6350455;28;20048;-81
2022/01/09 08:16:59;;;;;;;0.85;0.77;;;;;;;1.57;100.00;99033.56;6352652;27;20040;-80
2022/01/09 08:20:00;;;;;;;2.78;1.40;;;;;;;1.68;100.00;99032.19;6352899;28;20051;-81
2022/01/09 08:23:02;;;;;;;1.80;1.30;;;;;;;1.67;100.00;99043.44;6354063;28;20055;-82
2022/01/09 08:26:05;;;;;;;2.00;1.20;;;;;;;1.74;100.00;99046.59;6354180;28;20044;-81
2022/01/09 08:29:06;;;;;;;1.63;1.52;;;;;;;1.87;100.00;99044.31;6352368;28;20047;-78
2022/01/09 08:32:10;;;;;;;0.80;0.75;;;;;;;1.95;100.00;99052.53;6345479;28;20051;-80
2022/01/09 08:35:12;;;;;;;1.00;0.88;;;;;;;2.00;100.00;99048.88;6339608;28;20143;-80
2022/01/09 08:38:13;;;;;;;1.45;1.33;;;;;;;2.05;100.00;99056.44;6341424;28;20414;-79
2022/01/09 08:41:16;;;;;;;2.20;1.30;;;;;;;2.07;100.00;99061.53;6351157;28;20067;-79
2022/01/09 08:44:17;;;;;;;2.20;1.27;;;;;;;2.10;100.00;99069.16;6351478;28;20051;-79
2022/01/09 08:47:18;;;;;;;2.25;1.50;;;;;;;2.11;100.00;99076.88;6340862;28;20055;-80
2022/01/09 08:50:20;;;;;;;3.35;1.40;;;;;;;2.12;100.00;99078.53;6337096;28;20048;-80
2022/01/09 08:53:22;;;;;;;1.85;1.35;;;;;;;2.16;100.00;99079.25;6332573;28;20052;-80
2022/01/09 08:56:27;;;;;;;2.47;1.70;;;;;;;2.18;100.00;99093.81;6334849;28;20040;-81
2022/01/09 08:59:28;;;;;;;1.40;1.13;;;;;;;2.19;100.00;99092.91;6343911;28;20060;-80
2022/01/09 09:02:30;;;;;;;2.25;1.38;;;;;;;2.21;100.00;99092.81;6349966;28;20490;-80
2022/01/09 09:05:31;;;;;;;2.53;1.63;;;;;;;2.23;100.00;99098.78;6333582;28;20048;-81
2022/01/09 09:08:32;;;;;;;2.85;1.65;;;;;;;2.27;100.00;99108.09;6350981;28;20430;-80
2022/01/09 09:11:36;;;;;;;3.25;1.70;;;;;;;2.33;100.00;99114.75;6349923;28;20058;-80
2022/01/09 09:14:38;;;;;;;4.03;2.22;;;;;;;2.38;100.00;99120.56;6350671;28;20047;-80
2022/01/09 09:17:39;;;;;;;2.42;1.92;;;;;;;2.39;100.00;99123.09;6344633;28;20046;-81
2022/01/09 09:20:41;;;;;;;2.35;1.27;;;;;;;2.42;100.00;99127.28;6352858;28;20055;-82
2022/01/09 09:23:42;;;;;;;3.28;1.75;;;;;;;2.47;100.00;99133.09;6354041;28;20051;-81
2022/01/09 09:26:45;;;;;;;2.92;1.85;;;;;;;2.50;100.00;99136.41;6351586;28;20408;-81
2022/01/09 09:29:46;;;;;;;1.98;1.40;;;;;;;2.57;100.00;99138.69;6346578;28;20444;-81
2022/01/09 09:32:47;;;;;;;3.35;1.83;;;;;;;2.59;100.00;99148.09;6326073;28;20048;-81
2022/01/09 09:35:49;;;;;;;4.05;2.35;;;;;;;2.63;100.00;99151.38;6327435;28;20048;-82
2022/01/09 09:38:50;;;;;;;2.45;1.73;;;;;;;2.66;100.00;99159.84;6327311;28;20048;-82
2022/01/09 09:41:53;;;;;;;4.00;2.05;;;;;;;2.74;100.00;99169.88;6324104;28;20130;-81
2022/01/09 09:45:00;;;;;;;5.10;2.03;;;;;;;2.80;100.00;99162.66;6322822;28;20051;-81
2022/01/09 09:48:02;;;;;;;4.25;1.88;;;;;;;2.86;100.00;99165.84;6322158;28;20052;-81
2022/01/09 09:51:03;;;;;;;6.25;2.38;;;;;;;2.93;100.00;99177.63;6321949;28;20055;-81
2022/01/09 09:54:04;;;;;;;5.65;3.10;;;;;;;3.01;100.00;99176.38;6339457;28;20066;-81
2022/01/09 09:57:07;;;;;;;9.45;3.67;;;;;;;3.11;100.00;99181.13;6348434;28;20054;-81
2022/01/09 10:00:11;;;;;;;4.75;2.75;;;;;;;3.18;100.00;99179.88;6350178;28;20427;-81
2022/01/09 10:03:13;;;;;;;6.32;3.08;;;;;;;3.27;100.00;99180.31;6342993;28;20717;-79
2022/01/09 10:06:42;;;;;;;5.53;2.78;;;;;;;3.45;100.00;99182.91;6341182;28;20047;-82
2022/01/09 10:09:53;;;;;;;5.10;2.22;;;;;;;3.54;100.00;99177.25;6350289;28;20514;-79
2022/01/09 10:13:06;;;;;;;3.67;2.00;;;;;;;3.66;100.00;99181.84;6338925;28;20044;-80
2022/01/09 10:16:09;;;;;;;8.98;2.33;;;;;;;3.83;100.00;99187.94;6339792;28;20047;-79
2022/01/09 10:19:11;;;;;;;21.45;2.28;;;;;;;3.91;100.00;99204.00;6337945;28;20411;-79
2022/01/09 10:22:24;;;;;;;0.68;0.68;;;;;;;3.94;100.00;99203.81;6338105;28;20050;-82
2022/01/09 10:25:30;;;;;;;1.40;0.60;;;;;;;3.93;100.00;99210.78;6351045;28;20058;-81
2022/01/09 10:28:37;;;;;;;2.17;0.68;;;;;;;4.04;100.00;99231.03;6328927;28;20048;-83
2022/01/09 10:31:43;;;;;;;2.00;0.77;;;;;;;4.10;100.00;99225.53;6343256;28;20040;-82
2022/01/09 10:35:03;;;;;;;1.77;0.80;;;;;;;4.08;100.00;99225.59;6350012;28;20054;-83
2022/01/09 10:38:12;;;;;;;4.10;1.20;;;;;;;4.15;100.00;99240.88;6348021;28;20047;-81
2022/01/09 10:41:13;;;;;;;3.72;1.20;;;;;;;4.15;100.00;99241.72;6344587;28;20185;-80
2022/01/09 10:44:17;;;;;;;1.38;0.70;;;;;;;4.12;100.00;99243.63;6348296;28;20074;-78
2022/01/09 10:47:19;;;;;;;1.13;1.02;;;;;;;4.14;100.00;99255.66;6338083;28;20051;-80
2022/01/09 10:50:24;;;;;;;1.55;0.70;;;;;;;4.13;100.00;99266.09;6336264;28;20052;-82
2022/01/09 10:53:29;;;;;;;3.13;1.10;;;;;;;4.17;100.00;99283.22;6340296;28;20055;-81
2022/01/09 10:56:30;;;;;;;12.38;1.15;;;;;;;4.16;100.00;99281.56;6350710;28;20178;-81
2022/01/09 10:59:33;;;;;;;0.38;0.20;;;;;;;4.14;100.00;99276.44;6348533;28;20047;-81
2022/01/09 11:02:34;;;;;;;2.38;0.80;;;;;;;4.11;100.00;99286.16;6339166;28;20071;-80
2022/01/09 11:05:36;;;;;;;0.38;0.38;;;;;;;4.13;100.00;99303.34;6348479;28;20052;-80
2022/01/09 11:08:39;;;;;;;0.95;0.47;;;;;;;4.16;100.00;99292.78;6348601;28;20104;-78
2022/01/09 11:11:43;;;;;;;7.63;0.70;;;;;;;4.10;100.00;99308.72;6337883;28;20087;-80
2022/01/09 11:14:48;;;;;;;1.60;0.60;;;;;;;4.07;100.00;99303.66;6347943;28;20043;-81
2022/01/09 11:17:51;;;;;;;2.78;1.58;;;;;;;4.09;100.00;99320.03;6347203;28;20517;-79
2022/01/09 11:20:52;;;;;;;5.95;0.98;;;;;;;4.16;100.00;99321.41;6351440;28;20047;-79
2022/01/09 11:24:08;;;;;;;3.90;0.68;;;;;;;4.16;100.00;99333.56;6349055;28;20067;-77
2022/01/09 11:27:20;;;;;;;3.10;0.75;;;;;;;4.15;100.00;99331.88;6344113;28;20051;-78
2022/01/09 11:30:32;;;;;;;6.00;0.40;;;;;;;4.14;100.00;99338.84;6340124;28;20044;-81
2022/01/09 11:33:48;;;;;;;3.40;0.98;;;;;;;4.11;100.00;99348.53;6346373;28;20058;-81
2022/01/09 11:36:58;;;;;;;1.35;0.75;;;;;;;4.10;100.00;99347.72;6343279;28;20044;-80
2022/01/09 11:40:01;;;;;;;2.10;0.60;;;;;;;4.08;100.00;99357.31;6340181;28;20055;-80
2022/01/09 11:43:05;;;;;;;4.05;0.57;;;;;;;4.12;100.00;99368.41;6352319;27;20054;-80
2022/01/09 11:46:08;;;;;;;4.55;1.70;;;;;;;4.09;100.00;99366.81;6345790;28;20055;-78
2022/01/09 11:49:09;;;;;;;0.45;0.20;;;;;;;4.08;100.00;99373.75;6342115;28;20051;-77
2022/01/09 11:52:10;;;;;;;3.42;0.77;;;;;;;4.10;100.00;99370.25;6350551;28;20055;-79
2022/01/09 11:55:12;;;;;;;0.98;0.50;;;;;;;4.11;100.00;99377.13;6352134;28;20063;-77
2022/01/09 11:58:19;;;;;;;0.50;0.50;;;;;;;4.08;100.00;99378.13;6346472;28;20091;-79
2022/01/09 12:01:37;;;;;;;5.88;0.52;;;;;;;4.18;100.00;99389.78;6346004;28;20047;-80
2022/01/09 12:04:57;;;;;;;1.23;0.52;;;;;;;4.15;100.00;99392.50;6349815;28;20048;-79
2022/01/09 12:08:02;;;;;;;2.17;0.38;;;;;;;4.16;100.00;99395.94;6353054;28;20043;-79
2022/01/09 12:11:03;;;;;;;9.55;0.45;;;;;;;4.08;100.00;99397.16;6365689;28;20070;-79
2022/01/09 12:14:04;;;;;;;2.40;0.52;;;;;;;4.06;100.00;99403.34;6345999;28;20044;-80
2022/01/09 12:17:07;;;;;;;3.88;1.48;;;;;;;4.08;100.00;99412.75;6338032;28;20059;-77
2022/01/09 12:20:23;;;;;;;3.05;0.88;;;;;;;4.11;100.00;99416.13;6341433;28;20047;-78
2022/01/09 12:23:24;;;;;;;1.02;0.68;;;;;;;4.10;100.00;99417.91;6349707;27;20526;-77
2022/01/09 12:26:27;;;;;;;0.70;0.60;;;;;;;4.05;100.00;99419.88;6348030;28;20067;-77
2022/01/09 12:29:52;;;;;;;2.80;0.40;;;;;;;4.02;100.00;99422.63;6349514;28;20131;-79
2022/01/09 12:32:56;;;;;;;0.95;0.40;;;;;;;4.07;100.00;99429.25;6333941;27;20052;-78
2022/01/09 12:36:02;;;;;;;2.53;0.57;;;;;;;4.00;100.00;99435.69;6344270;28;20655;-79
2022/01/09 12:39:06;;;;;;;1.00;0.70;;;;;;;4.02;100.00;99451.22;6349252;28;20040;-78
2022/01/09 12:42:09;;;;;;;1.35;0.68;;;;;;;4.01;100.00;99439.97;6349303;28;20039;-78
2022/01/09 12:45:10;;;;;;;6.45;0.68;;;;;;;4.03;100.00;99460.69;6349339;28;20051;-77
2022/01/09 12:48:21;;;;;;;4.20;0.32;;;;;;;4.02;100.00;99459.84;6348712;28;20050;-78
2022/01/09 12:51:23;;;;;;;3.90;0.80;;;;;;;4.03;100.00;99458.91;6348514;28;20054;-78
2022/01/09 12:54:24;;;;;;;3.67;0.80;;;;;;;4.04;100.00;99460.63;6346578;28;20058;-78
2022/01/09 12:57:26;;;;;;;2.05;0.70;;;;;;;4.04;100.00;99476.22;6348112;28;20051;-78
2022/01/09 13:00:29;;;;;;;1.75;0.95;;;;;;;4.07;100.00;99481.25;6342974;28;20051;-79
2022/01/09 13:03:34;;;;;;;2.45;0.82;;;;;;;4.11;100.00;99486.31;6339935;28;20054;-78
2022/01/09 13:06:38;;;;;;;0.93;0.60;;;;;;;4.13;100.00;99495.72;6338035;28;20120;-79
2022/01/09 13:09:40;;;;;;;0.75;0.50;;;;;;;4.15;100.00;99496.50;6335511;28;20036;-79
2022/01/09 13:12:59;;;;;;;1.10;0.52;;;;;;;4.20;100.00;99502.31;6341599;28;20051;-79
2022/01/09 13:16:10;;;;;;;3.28;0.75;;;;;;;4.16;100.00;99505.16;6343490;28;20052;-80
2022/01/09 13:19:15;;;;;;;0.82;0.52;;;;;;;4.14;100.00;99507.00;6338914;28;20047;-79
2022/01/09 13:22:17;;;;;;;8.35;0.85;;;;;;;4.11;100.00;99515.75;6337320;28;20138;-80
2022/01/09 13:25:18;;;;;;;4.18;0.93;;;;;;;4.11;100.00;99514.91;6336235;28;20055;-80
2022/01/09 13:28:21;;;;;;;6.32;0.80;;;;;;;4.06;100.00;99522.94;6348694;28;20509;-80
2022/01/09 13:31:23;;;;;;;2.55;0.77;;;;;;;4.06;100.00;99531.56;6347421;28;20043;-80
2022/01/09 13:34:32;;;;;;;7.53;0.82;;;;;;;4.12;100.00;99537.41;6346026;28;20043;-80
2022/01/09 13:37:33;;;;;;;1.35;0.57;;;;;;;4.10;100.00;99536.63;6343786;28;20509;-80
2022/01/09 13:40:35;;;;;;;1.85;1.08;;;;;;;4.02;100.00;99540.41;6339159;28;20052;-80
2022/01/09 13:43:36;;;;;;;4.72;1.50;;;;;;;4.11;100.00;99543.53;6329391;28;20135;-80
2022/01/09 13:46:39;;;;;;;1.05;0.85;;;;;;;4.13;100.00;99549.47;6346266;28;20051;-81
2022/01/09 13:49:59;;;;;;;3.28;1.23;;;;;;;4.15;100.00;99547.66;6344368;28;20070;-79
2022/01/09 13:53:08;;;;;;;1.65;0.65;;;;;;;4.09;100.00;99556.59;6341462;28;20051;-80
2022/01/09 13:56:17;;;;;;;2.13;1.00;;;;;;;4.10;100.00;99562.63;6345418;28;20051;-80
2022/01/09 13:59:19;;;;;;;2.08;0.98;;;;;;;4.12;100.00;99584.19;6340502;28;20177;-80
2022/01/09 14:02:22;;;;;;;4.47;0.80;;;;;;;4.21;100.00;99582.00;6346480;28;20054;-79
2022/01/09 14:05:27;;;;;;;3.05;0.85;;;;;;;4.14;100.00;99583.22;6343632;28;20054;-78
2022/01/09 14:08:33;;;;;;;1.70;0.55;;;;;;;4.15;100.00;99599.66;6337787;28;20043;-80
2022/01/09 14:11:35;;;;;;;1.15;1.00;;;;;;;4.17;100.00;99596.06;6347608;28;20127;-81
2022/01/09 14:14:39;;;;;;;4.97;1.83;;;;;;;4.18;100.00;99602.97;6348391;28;20051;-79
2022/01/09 14:17:44;;;;;;;2.88;0.60;;;;;;;4.17;100.00;99608.22;6349350;28;20418;-80
2022/01/09 14:20:47;;;;;;;1.25;0.68;;;;;;;4.21;100.00;99620.19;6347293;28;20153;-81
2022/01/09 14:23:49;;;;;;;7.15;0.70;;;;;;;4.24;100.00;99620.88;6343218;28;20040;-79